createdAt,value
2022-10-22T00:00:25.190Z,100480.06
2022-10-22T00:02:57.049Z,100471.53
2022-10-22T00:05:28.605Z,100464.53
2022-10-22T00:08:00.466Z,100466.72
2022-10-22T00:10:32.020Z,100475.38
2022-10-22T00:13:03.834Z,100476.16
2022-10-22T00:15:35.699Z,100469.50
2022-10-22T00:18:07.194Z,100479.72
2022-10-22T00:20:39.038Z,100465.03
2022-10-22T00:23:10.528Z,100469.81
2022-10-22T00:25:42.406Z,100476.75
2022-10-22T00:28:14.926Z,100464.47
2022-10-22T00:30:46.878Z,100458.28
2022-10-22T00:33:18.598Z,100461.22
2022-10-22T00:35:50.103Z,100457.50
2022-10-22T00:38:21.628Z,100448.38
2022-10-22T00:40:53.518Z,100441.41
2022-10-22T00:43:25.122Z,100436.53
2022-10-22T00:45:56.945Z,100454.97
2022-10-22T00:48:28.497Z,100447.97
2022-10-22T00:51:00.291Z,100454.88
2022-10-22T00:53:31.782Z,100467.97
2022-10-22T00:56:03.593Z,100469.50
2022-10-22T00:58:35.078Z,100462.53
2022-10-22T01:01:06.700Z,100467.34
2022-10-22T01:03:38.271Z,100466.19
2022-10-22T01:06:10.230Z,100475.84
2022-10-22T01:08:41.754Z,100469.69
2022-10-22T01:11:13.582Z,100477.16
2022-10-22T01:13:45.063Z,100476.09
2022-10-22T01:16:16.876Z,100483.00
2022-10-22T01:18:48.942Z,100478.38
2022-10-22T01:21:20.726Z,100470.91
2022-10-22T01:23:52.226Z,100455.09
2022-10-22T01:29:00.454Z,100450.56
2022-10-22T01:31:32.323Z,100439.84
2022-10-22T01:34:03.891Z,100440.41
2022-10-22T01:36:35.748Z,100440.66
2022-10-22T01:39:07.240Z,100435.88
2022-10-22T01:41:39.043Z,100437.47
2022-10-22T01:44:10.586Z,100459.16
2022-10-22T01:46:42.069Z,100447.88
2022-10-22T01:49:13.946Z,100454.38
2022-10-22T01:51:45.465Z,100459.41
2022-10-22T01:54:17.425Z,100467.44
2022-10-22T01:56:48.931Z,100467.69
2022-10-22T01:59:20.747Z,100468.72
2022-10-22T02:01:52.242Z,100464.75
2022-10-22T02:04:24.262Z,100464.19
2022-10-22T02:06:55.769Z,100465.00
2022-10-22T02:09:27.738Z,100468.97
2022-10-22T02:11:59.488Z,100467.59
2022-10-22T02:14:31.410Z,100476.19
2022-10-22T02:17:02.933Z,100478.78
2022-10-22T02:19:34.911Z,100477.50
2022-10-22T02:22:06.712Z,100465.97
2022-10-22T02:24:38.535Z,100465.63
2022-10-22T02:27:10.195Z,100461.09
2022-10-22T02:29:42.051Z,100456.78
2022-10-22T02:32:13.567Z,100454.59
2022-10-22T02:34:45.529Z,100462.38
2022-10-22T02:37:17.027Z,100462.88
2022-10-22T02:39:48.924Z,100453.47
2022-10-22T02:42:20.473Z,100462.56
2022-10-22T02:44:52.313Z,100460.63
2022-10-22T02:47:23.843Z,100462.47
2022-10-22T02:49:55.615Z,100462.72
2022-10-22T02:52:27.150Z,100473.44
2022-10-22T02:54:59.164Z,100473.91
2022-10-22T02:57:30.673Z,100473.66
2022-10-22T03:00:02.530Z,100465.88
2022-10-22T03:02:34.054Z,100468.41
2022-10-22T03:05:05.928Z,100459.31
2022-10-22T03:07:37.639Z,100460.13
2022-10-22T03:10:09.806Z,100460.94
2022-10-22T03:12:41.296Z,100462.22
2022-10-22T03:15:12.810Z,100459.31
2022-10-22T03:17:44.322Z,100458.00
2022-10-22T03:20:16.166Z,100460.13
2022-10-22T03:22:47.648Z,100453.72
2022-10-22T03:25:19.546Z,100451.84
2022-10-22T03:27:51.054Z,100454.94
2022-10-22T03:30:22.976Z,100458.19
2022-10-22T03:32:54.477Z,100464.34
2022-10-22T03:35:26.434Z,100460.63
2022-10-22T03:37:57.946Z,100464.34
2022-10-22T03:40:29.807Z,100219.59
2022-10-22T03:43:02.715Z,100483.31
2022-10-22T03:45:34.297Z,100454.59
2022-10-22T03:48:06.228Z,100448.66
2022-10-22T03:50:37.713Z,100462.03
2022-10-22T03:53:10.933Z,100457.50
2022-10-22T03:55:42.525Z,100472.75
2022-10-22T03:58:14.517Z,100476.47
2022-10-22T04:00:46.077Z,100473.81
2022-10-22T04:03:17.966Z,100481.59
2022-10-22T04:05:49.448Z,100478.91
2022-10-22T04:08:21.482Z,100488.00
2022-10-22T04:10:52.989Z,100488.00
2022-10-22T04:13:24.893Z,100500.00
2022-10-22T04:15:56.374Z,100500.41
2022-10-22T04:18:28.552Z,100503.06
2022-10-22T04:21:00.050Z,100508.19
2022-10-22T04:23:31.938Z,100507.75
2022-10-22T04:26:03.442Z,100504.00
2022-10-22T04:28:35.556Z,100503.78
2022-10-22T04:31:07.039Z,100503.53
2022-10-22T04:33:38.992Z,100501.91
2022-10-22T04:36:11.567Z,100502.25
2022-10-22T04:38:43.671Z,100496.09
2022-10-22T04:41:15.216Z,100504.69
2022-10-22T04:43:47.148Z,100502.03
2022-10-22T04:46:18.888Z,100496.19
2022-10-22T04:48:50.848Z,100498.53
2022-10-22T04:51:22.430Z,100498.19
2022-10-22T04:53:54.322Z,100501.09
2022-10-22T04:56:25.972Z,100497.97
2022-10-22T04:58:57.859Z,100498.19
2022-10-22T05:01:29.401Z,100491.19
2022-10-22T05:04:01.502Z,100489.09
2022-10-22T05:06:32.988Z,100493.88
2022-10-22T05:09:04.954Z,100493.31
2022-10-22T05:11:36.488Z,100494.28
2022-10-22T05:14:09.749Z,100505.47
2022-10-22T05:16:41.322Z,100504.31
2022-10-22T05:19:13.276Z,100510.16
2022-10-22T05:21:44.820Z,100504.22
2022-10-22T05:24:16.830Z,100508.19
2022-10-22T05:26:48.309Z,100506.56
2022-10-22T05:29:20.275Z,100501.22
2022-10-22T05:31:51.845Z,100507.38
2022-10-22T05:34:23.866Z,100507.84
2022-10-22T05:36:55.339Z,100505.44
2022-10-22T05:39:27.230Z,100514.25
2022-10-22T05:41:58.766Z,100517.50
2022-10-22T05:44:30.721Z,100516.94
2022-10-22T05:47:02.273Z,100515.56
2022-10-22T05:49:34.350Z,100519.50
2022-10-22T05:52:05.836Z,100526.50
2022-10-22T05:54:37.708Z,100529.16
2022-10-22T05:57:09.195Z,100527.31
2022-10-22T05:59:41.036Z,100532.16
2022-10-22T06:02:12.811Z,100526.59
2022-10-22T06:04:44.320Z,100523.66
2022-10-22T06:07:16.175Z,100530.78
2022-10-22T06:09:50.198Z,100532.41
2022-10-22T06:12:22.045Z,100534.16
2022-10-22T06:14:53.548Z,100526.97
2022-10-22T06:17:25.480Z,100525.91
2022-10-22T06:19:56.988Z,100533.94
2022-10-22T06:22:29.035Z,100537.75
2022-10-22T06:25:00.523Z,100544.72
2022-10-22T06:27:32.330Z,100553.91
2022-10-22T06:30:03.820Z,100557.25
2022-10-22T06:32:35.590Z,100570.16
2022-10-22T06:35:07.068Z,100566.75
2022-10-22T06:37:39.504Z,100575.94
2022-10-22T06:40:11.191Z,100574.16
2022-10-22T06:42:43.398Z,100581.63
2022-10-22T06:45:15.124Z,100228.84
2022-10-22T06:47:48.003Z,100582.19
2022-10-22T06:50:19.555Z,100577.88
2022-10-22T06:52:51.342Z,100578.47
2022-10-22T06:55:22.834Z,100580.22
2022-10-22T06:57:54.704Z,100587.66
2022-10-22T07:00:26.268Z,100582.16
2022-10-22T07:02:59.850Z,100578.88
2022-10-22T07:05:31.449Z,100576.88
2022-10-22T07:08:03.402Z,100574.34
2022-10-22T07:10:34.919Z,100575.03
2022-10-22T07:13:06.791Z,100578.13
2022-10-22T07:15:38.453Z,100592.00
2022-10-22T07:18:10.309Z,100588.13
2022-10-22T07:20:41.799Z,100585.50
2022-10-22T07:23:13.638Z,100585.69
2022-10-22T07:25:45.185Z,100595.19
2022-10-22T07:28:17.286Z,100593.81
2022-10-22T07:30:48.803Z,100600.47
2022-10-22T07:33:20.660Z,100607.59
2022-10-22T07:35:52.154Z,100611.91
2022-10-22T07:38:24.056Z,100619.69
2022-10-22T07:40:55.548Z,100620.13
2022-10-22T07:43:27.382Z,100630.44
2022-10-22T07:46:00.279Z,100631.63
2022-10-22T07:48:31.828Z,100632.69
2022-10-22T07:51:03.850Z,100644.72
2022-10-22T07:53:35.399Z,100638.94
2022-10-22T07:56:07.415Z,100641.69
2022-10-22T07:58:38.975Z,100651.53
2022-10-22T08:01:10.594Z,100650.88
2022-10-22T08:03:42.179Z,100644.31
2022-10-22T08:06:14.047Z,100652.00
2022-10-22T08:08:48.578Z,100653.94
2022-10-22T08:11:20.468Z,100651.31
2022-10-22T08:13:51.955Z,100654.38
2022-10-22T08:16:23.776Z,100656.44
2022-10-22T08:18:55.266Z,100655.19
2022-10-22T08:21:27.082Z,100662.75
2022-10-22T08:23:58.633Z,100653.69
2022-10-22T08:26:30.493Z,100660.22
2022-10-22T08:29:02.001Z,100667.22
2022-10-22T08:31:33.806Z,100672.69
2022-10-22T08:34:05.674Z,100671.03
2022-10-22T08:36:37.532Z,100680.75
2022-10-22T08:39:09.012Z,100687.22
2022-10-22T08:41:41.006Z,100681.84
2022-10-22T08:44:12.506Z,100691.59
2022-10-22T08:46:44.347Z,100680.25
2022-10-22T08:49:15.840Z,100678.84
2022-10-22T08:51:47.848Z,100681.28
2022-10-22T08:54:19.567Z,100680.41
2022-10-22T08:56:51.277Z,100690.88
2022-10-22T08:59:22.771Z,100680.88
2022-10-22T09:01:54.611Z,100695.81
2022-10-22T09:04:26.163Z,100690.53
2022-10-22T09:06:58.045Z,100687.50
2022-10-22T09:09:29.579Z,100693.25
2022-10-22T09:12:01.402Z,100689.53
2022-10-22T09:14:32.917Z,100686.97
2022-10-22T09:17:05.306Z,100690.28
2022-10-22T09:19:36.833Z,100696.66
2022-10-22T09:22:08.798Z,100700.56
2022-10-22T09:24:40.310Z,100696.13
2022-10-22T09:27:12.101Z,100709.47
2022-10-22T09:29:43.613Z,100704.41
2022-10-22T09:32:15.433Z,100705.13
2022-10-22T09:34:46.951Z,100701.03
2022-10-22T09:37:18.814Z,100713.16
2022-10-22T09:39:50.294Z,100712.25
2022-10-22T09:42:22.124Z,100719.47
2022-10-22T09:44:53.864Z,100718.69
2022-10-22T09:47:37.276Z,100713.31
2022-10-22T09:50:14.600Z,100714.44
2022-10-22T09:52:46.571Z,100720.69
2022-10-22T09:55:18.048Z,100719.84
2022-10-22T09:57:49.860Z,100712.69
2022-10-22T10:00:22.006Z,100719.78
2022-10-22T10:02:53.941Z,100716.47
2022-10-22T10:05:25.435Z,100719.97
2022-10-22T10:07:57.398Z,100726.69
2022-10-22T10:10:28.986Z,100724.09
2022-10-22T10:13:00.793Z,100721.63
2022-10-22T10:15:34.292Z,100726.50
2022-10-22T10:18:05.802Z,100724.88
2022-10-22T10:20:39.458Z,100728.91
2022-10-22T10:23:10.946Z,100728.91
2022-10-22T10:25:42.643Z,100729.13
2022-10-22T10:28:14.151Z,100731.81
2022-10-22T10:30:46.151Z,100727.56
2022-10-22T10:33:17.706Z,100724.34
2022-10-22T10:35:49.532Z,100723.88
2022-10-22T10:38:23.518Z,100721.75
2022-10-22T10:40:57.896Z,100723.91
2022-10-22T10:43:29.380Z,100726.34
2022-10-22T10:46:01.177Z,100722.25
2022-10-22T10:48:32.667Z,100719.81
2022-10-22T10:51:04.556Z,100719.22
2022-10-22T10:53:36.043Z,100731.63
2022-10-22T10:56:07.870Z,100727.91
2022-10-22T10:58:39.368Z,100722.00
2022-10-22T11:01:11.372Z,100724.44
2022-10-22T11:03:42.939Z,100730.75
2022-10-22T11:06:15.235Z,100733.16
2022-10-22T11:08:48.684Z,100733.94
2022-10-22T11:11:20.578Z,100730.03
2022-10-22T11:13:52.070Z,100732.63
2022-10-22T11:16:23.861Z,100729.75
2022-10-22T11:18:55.376Z,100726.34
2022-10-22T11:21:27.309Z,100728.38
2022-10-22T11:23:58.832Z,100724.53
2022-10-22T11:26:30.619Z,100727.22
2022-10-22T11:29:02.138Z,100720.25
2022-10-22T11:31:33.989Z,100722.16
2022-10-22T11:34:21.723Z,100717.88
2022-10-22T11:36:57.751Z,100720.72
2022-10-22T11:39:29.236Z,100721.88
2022-10-22T11:42:00.908Z,100724.13
2022-10-22T11:44:33.563Z,100720.97
2022-10-22T11:47:05.407Z,100727.50
2022-10-22T11:49:36.913Z,100725.25
2022-10-22T11:52:08.439Z,100725.88
2022-10-22T11:54:42.838Z,100718.34
2022-10-22T11:57:14.767Z,100718.16
2022-10-22T11:59:46.249Z,100715.69
2022-10-22T12:02:17.753Z,100723.28
2022-10-22T12:04:49.429Z,100716.50
2022-10-22T12:07:21.292Z,100714.13
2022-10-22T12:12:29.539Z,100717.09
2022-10-22T12:15:01.056Z,100713.28
2022-10-22T12:17:32.857Z,100723.84
2022-10-22T12:20:04.345Z,100723.84
2022-10-22T12:22:39.348Z,100723.28
2022-10-22T12:25:11.379Z,100724.81
2022-10-22T12:27:43.157Z,100724.00
2022-10-22T12:30:15.726Z,100725.88
2022-10-22T12:32:47.204Z,100723.16
2022-10-22T12:35:19.100Z,100727.31
2022-10-22T12:37:50.896Z,100724.31
2022-10-22T12:40:22.767Z,100729.72
2022-10-22T12:42:54.271Z,100732.91
2022-10-22T12:45:26.166Z,100722.88
2022-10-22T12:47:57.716Z,100723.66
2022-10-22T12:50:29.555Z,100722.34
2022-10-22T12:53:01.036Z,100719.41
2022-10-22T12:55:32.883Z,100729.66
2022-10-22T12:58:04.383Z,100720.91
2022-10-22T13:00:35.934Z,100721.13
2022-10-22T13:03:07.532Z,100719.28
2022-10-22T13:05:39.558Z,100724.09
2022-10-22T13:08:11.093Z,100725.47
2022-10-22T13:10:42.961Z,100734.91
2022-10-22T13:13:14.472Z,100732.44
2022-10-22T13:15:46.438Z,100741.06
2022-10-22T13:18:17.964Z,100733.72
2022-10-22T13:20:49.475Z,100730.94
2022-10-22T13:23:21.078Z,100732.13
2022-10-22T13:25:52.955Z,100725.28
2022-10-22T13:28:25.018Z,100728.19
2022-10-22T13:30:56.864Z,100728.19
2022-10-22T13:33:28.388Z,100726.19
2022-10-22T13:36:00.223Z,100737.25
2022-10-22T13:38:31.725Z,100734.22
2022-10-22T13:41:05.162Z,100732.56
2022-10-22T13:43:36.659Z,100741.19
2022-10-22T13:46:08.528Z,100741.34
2022-10-22T13:48:40.019Z,100747.75
2022-10-22T13:51:11.814Z,100743.72
2022-10-22T13:53:43.331Z,100741.34
2022-10-22T13:56:15.806Z,100750.50
2022-10-22T13:58:47.312Z,100746.56
2022-10-22T14:01:19.585Z,100742.13
2022-10-22T14:03:51.425Z,100748.31
2022-10-22T14:06:23.438Z,100743.63
2022-10-22T14:08:56.123Z,100751.41
2022-10-22T14:11:27.713Z,100747.84
2022-10-22T14:13:59.235Z,100745.44
2022-10-22T14:16:32.656Z,100745.59
2022-10-22T14:19:04.138Z,100753.59
2022-10-22T14:21:36.000Z,100747.00
2022-10-22T14:24:09.528Z,100757.78
2022-10-22T14:26:43.716Z,100746.41
2022-10-22T14:29:15.202Z,100751.59
2022-10-22T14:31:47.107Z,100755.47
2022-10-22T14:34:18.652Z,100754.63
2022-10-22T14:36:50.148Z,100764.53
2022-10-22T14:39:21.638Z,100759.16
2022-10-22T14:41:53.137Z,100628.75
2022-10-22T14:44:24.743Z,100764.06
2022-10-22T14:46:56.582Z,100775.19
2022-10-22T14:49:28.078Z,100771.13
2022-10-22T14:51:59.903Z,100766.88
2022-10-22T14:54:31.464Z,100769.38
2022-10-22T14:57:03.301Z,100772.81
2022-10-22T14:59:34.789Z,100773.34
2022-10-22T15:02:06.590Z,100766.69
2022-10-22T15:04:38.078Z,100769.69
2022-10-22T15:07:09.970Z,100764.78
2022-10-22T15:09:41.452Z,100779.44
2022-10-22T15:12:13.282Z,100780.03
2022-10-22T15:14:44.886Z,100570.16
2022-10-22T15:17:16.829Z,100778.72
2022-10-22T15:19:48.332Z,100781.41
2022-10-22T15:22:20.211Z,100777.34
2022-10-22T15:24:53.538Z,100783.03
2022-10-22T15:27:25.658Z,100783.56
2022-10-22T15:29:59.486Z,100792.97
2022-10-22T15:32:33.274Z,100786.75
2022-10-22T15:35:06.199Z,100795.13
2022-10-22T15:37:38.314Z,100795.31
2022-10-22T15:40:10.177Z,100787.47
2022-10-22T15:42:42.049Z,100792.81
2022-10-22T15:45:14.285Z,100794.13
2022-10-22T15:47:47.462Z,100793.22
2022-10-22T15:50:20.043Z,100797.50
2022-10-22T15:52:51.599Z,100795.03
2022-10-22T15:55:23.338Z,100802.75
2022-10-22T15:57:57.201Z,100801.63
2022-10-22T16:00:31.214Z,100804.25
2022-10-22T16:03:02.712Z,100812.50
2022-10-22T16:05:34.655Z,100798.13
2022-10-22T16:08:06.133Z,100805.31
2022-10-22T16:10:37.717Z,100806.88
2022-10-22T16:13:09.214Z,100809.13
2022-10-22T16:15:41.118Z,100818.13
2022-10-22T16:18:12.636Z,100813.97
2022-10-22T16:20:44.180Z,100818.97
2022-10-22T16:23:18.716Z,100818.63
2022-10-22T16:25:50.595Z,100826.31
2022-10-22T16:28:22.225Z,100818.13
2022-10-22T16:30:54.234Z,100833.03
2022-10-22T16:33:25.728Z,100832.97
2022-10-22T16:35:57.701Z,100823.53
2022-10-22T16:38:29.271Z,100831.28
2022-10-22T16:41:01.191Z,100826.66
2022-10-22T16:43:32.755Z,100831.72
2022-10-22T16:46:04.641Z,100835.38
2022-10-22T16:48:40.355Z,100841.16
2022-10-22T16:51:12.269Z,100842.66
2022-10-22T16:53:43.838Z,100838.81
2022-10-22T16:56:15.346Z,100842.00
2022-10-22T16:58:46.898Z,100855.53
2022-10-22T17:01:18.805Z,100635.00
2022-10-22T17:03:50.363Z,100858.34
2022-10-22T17:06:22.497Z,100868.03
2022-10-22T17:08:54.066Z,100871.22
2022-10-22T17:11:26.093Z,100873.47
2022-10-22T17:13:58.098Z,100873.66
2022-10-22T17:16:29.675Z,100883.81
2022-10-22T17:19:01.597Z,100885.69
2022-10-22T17:21:34.021Z,100888.13
2022-10-22T17:24:06.003Z,100886.97
2022-10-22T17:26:37.591Z,100886.75
2022-10-22T17:29:09.391Z,100892.91
2022-10-22T17:31:40.936Z,100887.31
2022-10-22T17:34:12.899Z,100893.41
2022-10-22T17:36:44.404Z,100904.19
2022-10-22T17:39:16.214Z,100902.53
2022-10-22T17:41:47.767Z,100905.16
2022-10-22T17:44:19.621Z,100907.59
2022-10-22T17:46:51.108Z,100910.97
2022-10-22T17:49:22.930Z,100908.59
2022-10-22T17:51:54.489Z,100914.31
2022-10-22T17:54:26.473Z,100906.34
2022-10-22T17:56:57.969Z,100906.41
2022-10-22T17:59:29.788Z,100902.59
2022-10-22T18:02:04.359Z,100745.50
2022-10-22T18:04:36.208Z,100907.41
2022-10-22T18:07:07.697Z,100903.75
2022-10-22T18:09:39.267Z,100901.66
2022-10-22T18:12:13.685Z,100906.03
2022-10-22T18:14:47.021Z,100902.63
2022-10-22T18:17:18.596Z,100913.19
2022-10-22T18:19:50.487Z,100911.47
2022-10-22T18:22:21.990Z,100914.09
2022-10-22T18:24:53.558Z,100913.03
2022-10-22T18:27:25.059Z,100748.97
2022-10-22T18:29:56.849Z,100920.34
2022-10-22T18:32:28.373Z,100915.53
2022-10-22T18:35:00.184Z,100921.16
2022-10-22T18:37:32.178Z,100916.59
2022-10-22T18:40:03.673Z,100920.59
2022-10-22T18:42:37.757Z,100915.72
2022-10-22T18:45:11.997Z,100925.09
2022-10-22T18:47:43.864Z,100922.53
2022-10-22T18:50:15.390Z,100923.28
2022-10-22T18:52:47.267Z,100922.16
2022-10-22T18:55:18.806Z,100915.00
2022-10-22T18:57:50.688Z,100923.47
2022-10-22T19:00:22.186Z,100916.47
2022-10-22T19:02:54.894Z,100924.75
2022-10-22T19:05:26.469Z,100926.75
2022-10-22T19:07:58.299Z,100931.00
2022-10-22T19:10:29.793Z,100925.88
2022-10-22T19:13:01.361Z,100931.97
2022-10-22T19:15:32.867Z,100929.44
2022-10-22T19:18:04.712Z,100943.56
2022-10-22T19:20:36.304Z,100940.47
2022-10-22T19:23:07.901Z,100941.88
2022-10-22T19:25:39.427Z,100944.44
2022-10-22T19:28:11.262Z,100949.94
2022-10-22T19:30:44.645Z,100944.81
2022-10-22T19:33:16.182Z,100951.25
2022-10-22T19:35:47.713Z,100954.66
2022-10-22T19:38:19.516Z,100956.75
2022-10-22T19:40:51.341Z,100959.19
2022-10-22T19:43:23.998Z,100955.22
2022-10-22T19:45:55.680Z,100954.66
2022-10-22T19:48:29.148Z,100961.28
2022-10-22T19:51:03.099Z,100971.44
2022-10-22T19:53:34.611Z,100975.09
2022-10-22T19:56:06.649Z,100975.53
2022-10-22T19:58:38.148Z,100978.69
2022-10-22T20:01:10.072Z,100974.47
2022-10-22T20:03:41.735Z,100979.97
2022-10-22T20:06:13.534Z,100989.06
2022-10-22T20:08:45.304Z,100987.44
2022-10-22T20:11:17.181Z,100990.34
2022-10-22T20:13:51.418Z,100993.25
2022-10-22T20:16:24.577Z,100994.44
2022-10-22T20:18:56.089Z,100998.03
2022-10-22T20:21:27.898Z,100995.09
2022-10-22T20:23:59.487Z,101003.25
2022-10-22T20:26:31.902Z,101002.44
2022-10-22T20:29:03.423Z,100997.41
2022-10-22T20:31:36.606Z,101000.66
2022-10-22T20:34:08.140Z,101012.53
2022-10-22T20:36:39.674Z,101006.13
2022-10-22T20:39:11.213Z,101013.38
2022-10-22T20:41:42.987Z,101013.69
2022-10-22T20:44:14.555Z,101018.63
2022-10-22T20:46:46.440Z,101016.50
2022-10-22T20:49:18.200Z,101029.69
2022-10-22T20:51:49.995Z,101032.13
2022-10-22T20:54:21.528Z,101028.88
2022-10-22T20:56:53.445Z,101030.75
2022-10-22T20:59:25.025Z,101027.13
2022-10-22T21:01:56.622Z,101032.25
2022-10-22T21:04:28.213Z,101034.13
2022-10-22T21:07:00.141Z,101031.22
2022-10-22T21:09:31.756Z,101037.88
2022-10-22T21:12:03.792Z,101041.59
2022-10-22T21:14:35.274Z,101041.13
2022-10-22T21:17:08.286Z,101041.94
2022-10-22T21:19:39.767Z,101046.25
2022-10-22T21:22:11.729Z,101048.13
2022-10-22T21:24:43.227Z,101054.78
2022-10-22T21:27:15.082Z,101054.78
2022-10-22T21:29:46.657Z,101058.50
2022-10-22T21:32:18.463Z,101058.75
2022-10-22T21:34:49.962Z,101056.06
2022-10-22T21:37:23.131Z,101057.94
2022-10-22T21:39:54.619Z,101065.97
2022-10-22T21:42:26.483Z,101069.81
2022-10-22T21:44:58.013Z,101070.63
2022-10-22T21:47:29.965Z,101071.22
2022-10-22T21:50:01.545Z,101075.53
2022-10-22T21:52:33.419Z,101070.75
2022-10-22T21:55:05.208Z,101071.88
2022-10-22T21:57:36.738Z,101064.06
2022-10-22T22:00:08.304Z,101064.91
2022-10-22T22:02:39.899Z,101070.03
2022-10-22T22:05:11.874Z,101065.13
2022-10-22T22:07:43.344Z,101069.09
2022-10-22T22:10:15.125Z,101065.03
2022-10-22T22:12:46.668Z,101056.06
2022-10-22T22:15:18.498Z,101054.53
2022-10-22T22:17:50.023Z,101056.28
2022-10-22T22:20:21.587Z,101056.88
2022-10-22T22:22:53.086Z,101063.19
2022-10-22T22:25:24.915Z,101056.53
2022-10-22T22:27:56.404Z,101062.84
2022-10-22T22:30:28.155Z,101068.09
2022-10-22T22:32:59.696Z,101061.81
2022-10-22T22:35:32.736Z,101058.44
2022-10-22T22:38:04.327Z,101061.00
2022-10-22T22:40:36.757Z,101060.31
2022-10-22T22:43:08.267Z,101057.13
2022-10-22T22:45:41.243Z,101061.31
2022-10-22T22:48:12.721Z,101064.09
2022-10-22T22:50:44.757Z,101060.25
2022-10-22T22:53:16.239Z,101058.03
2022-10-22T22:55:49.622Z,101065.50
2022-10-22T22:58:21.126Z,101067.22
2022-10-22T23:00:53.003Z,101066.66
2022-10-22T23:03:24.579Z,101063.00
2022-10-22T23:05:56.435Z,101062.41
2022-10-22T23:08:27.934Z,101058.34
2022-10-22T23:10:59.741Z,101063.09
2022-10-22T23:13:31.250Z,101063.56
2022-10-22T23:16:03.177Z,101065.88
2022-10-22T23:18:35.552Z,101071.47
2022-10-22T23:21:07.100Z,101071.53
2022-10-22T23:23:38.984Z,101069.19
2022-10-22T23:26:10.484Z,101074.78
2022-10-22T23:28:42.011Z,101074.53
2022-10-22T23:31:13.515Z,101070.47
2022-10-22T23:33:45.069Z,101071.69
2022-10-22T23:36:16.581Z,101081.00
2022-10-22T23:38:49.217Z,101071.81
2022-10-22T23:41:20.688Z,101077.59
2022-10-22T23:43:52.501Z,101071.88
2022-10-22T23:46:24.017Z,101078.50
2022-10-22T23:48:55.875Z,101075.25
2022-10-22T23:51:27.378Z,101076.50
2022-10-22T23:53:59.203Z,101072.22
2022-10-22T23:56:30.746Z,101076.75
2022-10-22T23:59:02.275Z,101064.63
